sensor_id;sensor_type;location;lat;lon;timestamp;temperature;humidity
12025;DHT22;6073;53.230;10.444;2023-04-29T00:01:35;9.40;99.90
12025;DHT22;6073;53.230;10.444;2023-04-29T00:04:01;9.40;99.90
12025;DHT22;6073;53.230;10.444;2023-04-29T00:06:27;9.40;99.90
12025;DHT22;6073;53.230;10.444;2023-04-29T00:08:52;9.30;99.90
12025;DHT22;6073;53.230;10.444;2023-04-29T00:11:18;9.30;99.90
12025;DHT22;6073;53.230;10.444;2023-04-29T00:13:43;9.30;99.90
12025;DHT22;6073;53.230;10.444;2023-04-29T00:16:09;9.30;99.90
12025;DHT22;6073;53.230;10.444;2023-04-29T00:18:34;9.20;99.90
12025;DHT22;6073;53.230;10.444;2023-04-29T00:21:02;9.20;99.90
12025;DHT22;6073;53.230;10.444;2023-04-29T00:23:31;9.20;99.90
12025;DHT22;6073;53.230;10.444;2023-04-29T00:25:56;9.10;99.90
12025;DHT22;6073;53.230;10.444;2023-04-29T00:28:22;9.10;99.90
12025;DHT22;6073;53.230;10.444;2023-04-29T00:30:47;9.10;99.90
12025;DHT22;6073;53.230;10.444;2023-04-29T00:33:13;9.00;99.90
12025;DHT22;6073;53.230;10.444;2023-04-29T00:35:38;9.00;99.90
12025;DHT22;6073;53.230;10.444;2023-04-29T00:38:04;9.00;99.90
12025;DHT22;6073;53.230;10.444;2023-04-29T00:40:29;9.00;99.90
12025;DHT22;6073;53.230;10.444;2023-04-29T00:42:55;9.00;99.90
12025;DHT22;6073;53.230;10.444;2023-04-29T00:45:21;9.00;99.90
12025;DHT22;6073;53.230;10.444;2023-04-29T00:47:47;9.00;99.90
12025;DHT22;6073;53.230;10.444;2023-04-29T00:50:12;9.00;99.90
12025;DHT22;6073;53.230;10.444;2023-04-29T00:52:38;9.00;99.90
12025;DHT22;6073;53.230;10.444;2023-04-29T00:55:05;8.90;99.90
12025;DHT22;6073;53.230;10.444;2023-04-29T00:57:32;8.90;99.90
12025;DHT22;6073;53.230;10.444;2023-04-29T00:59:59;8.80;99.90
12025;DHT22;6073;53.230;10.444;2023-04-29T01:02:24;8.80;99.90
12025;DHT22;6073;53.230;10.444;2023-04-29T01:04:51;8.80;99.90
12025;DHT22;6073;53.230;10.444;2023-04-29T01:07:36;8.80;99.90
12025;DHT22;6073;53.230;10.444;2023-04-29T01:10:14;8.80;99.90
12025;DHT22;6073;53.230;10.444;2023-04-29T01:12:44;8.80;99.90
12025;DHT22;6073;53.230;10.444;2023-04-29T01:15:27;8.80;99.90
12025;DHT22;6073;53.230;10.444;2023-04-29T01:18:03;8.70;99.90
12025;DHT22;6073;53.230;10.444;2023-04-29T01:20:30;8.70;99.90
12025;DHT22;6073;53.230;10.444;2023-04-29T01:22:56;8.70;99.90
12025;DHT22;6073;53.230;10.444;2023-04-29T01:25:22;8.70;99.90
12025;DHT22;6073;53.230;10.444;2023-04-29T01:33:32;8.70;99.90
12025;DHT22;6073;53.230;10.444;2023-04-29T01:41:25;8.70;99.90
12025;DHT22;6073;53.230;10.444;2023-04-29T01:43:55;8.70;99.90
12025;DHT22;6073;53.230;10.444;2023-04-29T01:46:22;8.70;99.90
12025;DHT22;6073;53.230;10.444;2023-04-29T01:48:51;8.70;99.90
12025;DHT22;6073;53.230;10.444;2023-04-29T01:51:16;8.70;99.90
12025;DHT22;6073;53.230;10.444;2023-04-29T01:53:42;8.60;99.90
12025;DHT22;6073;53.230;10.444;2023-04-29T01:56:08;8.60;99.90
12025;DHT22;6073;53.230;10.444;2023-04-29T01:58:33;8.60;99.90
12025;DHT22;6073;53.230;10.444;2023-04-29T02:00:59;8.60;99.90
12025;DHT22;6073;53.230;10.444;2023-04-29T02:03:24;8.70;99.90
12025;DHT22;6073;53.230;10.444;2023-04-29T02:05:50;8.70;99.90
12025;DHT22;6073;53.230;10.444;2023-04-29T02:08:16;8.60;99.90
12025;DHT22;6073;53.230;10.444;2023-04-29T02:13:19;8.60;99.90
12025;DHT22;6073;53.230;10.444;2023-04-29T02:15:44;8.70;99.90
12025;DHT22;6073;53.230;10.444;2023-04-29T02:18:10;8.70;99.90
12025;DHT22;6073;53.230;10.444;2023-04-29T02:20:35;8.70;99.90
12025;DHT22;6073;53.230;10.444;2023-04-29T02:23:01;8.60;99.90
12025;DHT22;6073;53.230;10.444;2023-04-29T02:25:26;8.60;99.90
12025;DHT22;6073;53.230;10.444;2023-04-29T02:27:52;8.60;99.90
12025;DHT22;6073;53.230;10.444;2023-04-29T02:30:17;8.60;99.90
12025;DHT22;6073;53.230;10.444;2023-04-29T02:32:43;8.60;99.90
12025;DHT22;6073;53.230;10.444;2023-04-29T02:35:08;8.70;99.90
12025;DHT22;6073;53.230;10.444;2023-04-29T02:37:34;8.70;99.90
12025;DHT22;6073;53.230;10.444;2023-04-29T02:40:00;8.60;99.90
12025;DHT22;6073;53.230;10.444;2023-04-29T02:42:26;8.70;99.90
12025;DHT22;6073;53.230;10.444;2023-04-29T02:44:52;8.70;99.90
12025;DHT22;6073;53.230;10.444;2023-04-29T02:47:17;8.60;99.90
12025;DHT22;6073;53.230;10.444;2023-04-29T02:49:43;8.70;99.90
12025;DHT22;6073;53.230;10.444;2023-04-29T02:52:08;8.70;99.90
12025;DHT22;6073;53.230;10.444;2023-04-29T02:54:34;8.70;99.90
12025;DHT22;6073;53.230;10.444;2023-04-29T02:57:00;8.70;99.90
12025;DHT22;6073;53.230;10.444;2023-04-29T02:59:26;8.70;99.90
12025;DHT22;6073;53.230;10.444;2023-04-29T03:01:52;8.70;99.90
12025;DHT22;6073;53.230;10.444;2023-04-29T03:04:19;8.70;99.90
12025;DHT22;6073;53.230;10.444;2023-04-29T03:06:44;8.70;99.90
12025;DHT22;6073;53.230;10.444;2023-04-29T03:09:10;8.70;99.90
12025;DHT22;6073;53.230;10.444;2023-04-29T03:11:37;8.70;99.90
12025;DHT22;6073;53.230;10.444;2023-04-29T03:14:03;8.70;99.90
12025;DHT22;6073;53.230;10.444;2023-04-29T03:16:29;8.70;99.90
12025;DHT22;6073;53.230;10.444;2023-04-29T03:18:55;8.70;99.90
12025;DHT22;6073;53.230;10.444;2023-04-29T03:21:22;8.70;99.90
12025;DHT22;6073;53.230;10.444;2023-04-29T03:23:49;8.70;99.90
12025;DHT22;6073;53.230;10.444;2023-04-29T03:26:15;8.70;99.90
12025;DHT22;6073;53.230;10.444;2023-04-29T03:28:40;8.70;99.90
12025;DHT22;6073;53.230;10.444;2023-04-29T03:31:06;8.70;99.90
12025;DHT22;6073;53.230;10.444;2023-04-29T03:33:32;8.70;99.90
12025;DHT22;6073;53.230;10.444;2023-04-29T03:35:57;8.70;99.90
12025;DHT22;6073;53.230;10.444;2023-04-29T03:38:23;8.70;99.90
12025;DHT22;6073;53.230;10.444;2023-04-29T03:40:50;8.70;99.90
12025;DHT22;6073;53.230;10.444;2023-04-29T03:43:16;8.70;99.90
12025;DHT22;6073;53.230;10.444;2023-04-29T03:45:41;8.70;99.90
12025;DHT22;6073;53.230;10.444;2023-04-29T03:48:07;8.70;99.90
12025;DHT22;6073;53.230;10.444;2023-04-29T03:50:32;8.80;99.90
12025;DHT22;6073;53.230;10.444;2023-04-29T03:52:58;8.70;99.90
12025;DHT22;6073;53.230;10.444;2023-04-29T03:55:24;8.70;99.90
12025;DHT22;6073;53.230;10.444;2023-04-29T03:57:50;8.70;99.90
12025;DHT22;6073;53.230;10.444;2023-04-29T04:00:15;8.70;99.90
12025;DHT22;6073;53.230;10.444;2023-04-29T04:02:41;8.70;99.90
12025;DHT22;6073;53.230;10.444;2023-04-29T04:05:07;8.70;99.90
12025;DHT22;6073;53.230;10.444;2023-04-29T04:07:32;8.70;99.90
12025;DHT22;6073;53.230;10.444;2023-04-29T04:09:58;8.70;99.90
12025;DHT22;6073;53.230;10.444;2023-04-29T04:12:23;8.70;99.90
12025;DHT22;6073;53.230;10.444;2023-04-29T04:14:49;8.70;99.90
12025;DHT22;6073;53.230;10.444;2023-04-29T04:17:14;8.60;99.90
12025;DHT22;6073;53.230;10.444;2023-04-29T04:19:40;8.60;99.90
12025;DHT22;6073;53.230;10.444;2023-04-29T04:22:05;8.60;99.90
12025;DHT22;6073;53.230;10.444;2023-04-29T04:24:32;8.60;99.90
12025;DHT22;6073;53.230;10.444;2023-04-29T04:26:57;8.60;99.90
12025;DHT22;6073;53.230;10.444;2023-04-29T04:29:23;8.60;99.90
12025;DHT22;6073;53.230;10.444;2023-04-29T04:31:48;8.60;99.90
12025;DHT22;6073;53.230;10.444;2023-04-29T04:34:14;8.60;99.90
12025;DHT22;6073;53.230;10.444;2023-04-29T04:36:39;8.60;99.90
12025;DHT22;6073;53.230;10.444;2023-04-29T04:39:05;8.60;99.90
12025;DHT22;6073;53.230;10.444;2023-04-29T04:41:31;8.60;99.90
12025;DHT22;6073;53.230;10.444;2023-04-29T04:43:57;8.60;99.90
12025;DHT22;6073;53.230;10.444;2023-04-29T04:46:22;8.60;99.90
12025;DHT22;6073;53.230;10.444;2023-04-29T04:48:48;8.50;99.90
12025;DHT22;6073;53.230;10.444;2023-04-29T04:51:14;8.60;99.90
12025;DHT22;6073;53.230;10.444;2023-04-29T04:53:40;8.60;99.90
12025;DHT22;6073;53.230;10.444;2023-04-29T04:56:05;8.60;99.90
12025;DHT22;6073;53.230;10.444;2023-04-29T04:58:32;8.60;99.90
12025;DHT22;6073;53.230;10.444;2023-04-29T05:00:58;8.60;99.90
12025;DHT22;6073;53.230;10.444;2023-04-29T05:03:24;8.60;99.90
12025;DHT22;6073;53.230;10.444;2023-04-29T05:05:54;8.60;99.90
12025;DHT22;6073;53.230;10.444;2023-04-29T05:08:19;8.60;99.90
12025;DHT22;6073;53.230;10.444;2023-04-29T05:10:45;8.60;99.90
12025;DHT22;6073;53.230;10.444;2023-04-29T05:13:10;8.60;99.90
12025;DHT22;6073;53.230;10.444;2023-04-29T05:15:36;8.60;99.90
12025;DHT22;6073;53.230;10.444;2023-04-29T05:18:01;8.60;99.90
12025;DHT22;6073;53.230;10.444;2023-04-29T05:20:27;8.60;99.90
12025;DHT22;6073;53.230;10.444;2023-04-29T05:22:52;8.60;99.90
12025;DHT22;6073;53.230;10.444;2023-04-29T05:25:18;8.70;99.90
12025;DHT22;6073;53.230;10.444;2023-04-29T05:27:43;8.80;99.90
12025;DHT22;6073;53.230;10.444;2023-04-29T05:30:09;8.80;99.90
12025;DHT22;6073;53.230;10.444;2023-04-29T05:32:35;8.80;99.90
12025;DHT22;6073;53.230;10.444;2023-04-29T05:35:00;8.90;99.90
12025;DHT22;6073;53.230;10.444;2023-04-29T05:37:26;8.90;99.90
12025;DHT22;6073;53.230;10.444;2023-04-29T05:39:55;8.90;99.90
12025;DHT22;6073;53.230;10.444;2023-04-29T05:42:21;8.90;99.90
12025;DHT22;6073;53.230;10.444;2023-04-29T05:44:48;9.00;99.90
12025;DHT22;6073;53.230;10.444;2023-04-29T05:47:13;9.00;99.90
12025;DHT22;6073;53.230;10.444;2023-04-29T05:49:39;9.00;99.90
12025;DHT22;6073;53.230;10.444;2023-04-29T05:52:05;8.90;99.90
12025;DHT22;6073;53.230;10.444;2023-04-29T05:54:33;9.00;99.90
12025;DHT22;6073;53.230;10.444;2023-04-29T05:57:00;9.00;99.90
12025;DHT22;6073;53.230;10.444;2023-04-29T05:59:28;9.10;99.90
12025;DHT22;6073;53.230;10.444;2023-04-29T06:01:54;9.10;99.90
12025;DHT22;6073;53.230;10.444;2023-04-29T06:04:20;9.10;99.90
12025;DHT22;6073;53.230;10.444;2023-04-29T06:06:46;9.00;99.90
12025;DHT22;6073;53.230;10.444;2023-04-29T06:09:12;9.00;99.90
12025;DHT22;6073;53.230;10.444;2023-04-29T06:11:39;9.00;99.90
12025;DHT22;6073;53.230;10.444;2023-04-29T06:14:05;9.00;99.90
12025;DHT22;6073;53.230;10.444;2023-04-29T06:16:31;8.90;99.90
12025;DHT22;6073;53.230;10.444;2023-04-29T06:18:56;8.90;99.90
12025;DHT22;6073;53.230;10.444;2023-04-29T06:21:22;8.80;99.90
12025;DHT22;6073;53.230;10.444;2023-04-29T06:23:48;8.90;99.90
12025;DHT22;6073;53.230;10.444;2023-04-29T06:26:13;9.00;99.90
12025;DHT22;6073;53.230;10.444;2023-04-29T06:28:39;9.20;99.90
12025;DHT22;6073;53.230;10.444;2023-04-29T06:31:05;9.40;99.90
12025;DHT22;6073;53.230;10.444;2023-04-29T06:33:30;9.40;99.90
12025;DHT22;6073;53.230;10.444;2023-04-29T06:35:58;9.30;99.90
12025;DHT22;6073;53.230;10.444;2023-04-29T06:38:24;9.30;99.90
12025;DHT22;6073;53.230;10.444;2023-04-29T06:40:50;9.60;99.90
12025;DHT22;6073;53.230;10.444;2023-04-29T06:43:15;9.70;99.90
12025;DHT22;6073;53.230;10.444;2023-04-29T06:45:45;9.90;99.90
12025;DHT22;6073;53.230;10.444;2023-04-29T06:48:11;9.90;99.90
12025;DHT22;6073;53.230;10.444;2023-04-29T06:50:36;10.00;99.90
12025;DHT22;6073;53.230;10.444;2023-04-29T06:53:02;10.10;99.90
12025;DHT22;6073;53.230;10.444;2023-04-29T06:55:28;10.30;99.90
12025;DHT22;6073;53.230;10.444;2023-04-29T06:57:53;10.70;99.90
12025;DHT22;6073;53.230;10.444;2023-04-29T07:00:19;10.90;99.90
12025;DHT22;6073;53.230;10.444;2023-04-29T07:02:47;11.00;99.90
12025;DHT22;6073;53.230;10.444;2023-04-29T07:05:12;11.10;99.90
12025;DHT22;6073;53.230;10.444;2023-04-29T07:07:38;11.10;99.90
12025;DHT22;6073;53.230;10.444;2023-04-29T07:10:04;11.30;99.90
12025;DHT22;6073;53.230;10.444;2023-04-29T07:12:29;11.50;99.90
12025;DHT22;6073;53.230;10.444;2023-04-29T07:14:56;12.00;99.90
12025;DHT22;6073;53.230;10.444;2023-04-29T07:17:22;13.00;99.90
12025;DHT22;6073;53.230;10.444;2023-04-29T07:19:47;14.10;99.90
12025;DHT22;6073;53.230;10.444;2023-04-29T07:22:13;15.20;99.90
12025;DHT22;6073;53.230;10.444;2023-04-29T07:24:38;15.90;99.90
12025;DHT22;6073;53.230;10.444;2023-04-29T07:27:04;17.00;99.90
12025;DHT22;6073;53.230;10.444;2023-04-29T07:29:30;16.50;99.90
12025;DHT22;6073;53.230;10.444;2023-04-29T07:31:55;16.20;99.90
12025;DHT22;6073;53.230;10.444;2023-04-29T07:34:21;16.30;99.90
12025;DHT22;6073;53.230;10.444;2023-04-29T07:36:47;16.20;99.90
12025;DHT22;6073;53.230;10.444;2023-04-29T07:39:12;15.90;99.90
12025;DHT22;6073;53.230;10.444;2023-04-29T07:41:39;15.60;99.90
12025;DHT22;6073;53.230;10.444;2023-04-29T07:44:05;16.00;99.90
12025;DHT22;6073;53.230;10.444;2023-04-29T07:46:30;16.30;99.90
12025;DHT22;6073;53.230;10.444;2023-04-29T07:48:56;16.20;99.90
12025;DHT22;6073;53.230;10.444;2023-04-29T07:51:22;16.40;99.90
12025;DHT22;6073;53.230;10.444;2023-04-29T07:53:48;16.10;99.90
12025;DHT22;6073;53.230;10.444;2023-04-29T07:56:14;16.00;99.90
12025;DHT22;6073;53.230;10.444;2023-04-29T07:58:40;16.20;99.90
12025;DHT22;6073;53.230;10.444;2023-04-29T08:01:07;16.40;99.90
12025;DHT22;6073;53.230;10.444;2023-04-29T08:03:33;16.70;99.90
12025;DHT22;6073;53.230;10.444;2023-04-29T08:06:02;16.80;99.90
12025;DHT22;6073;53.230;10.444;2023-04-29T08:08:31;17.20;99.90
12025;DHT22;6073;53.230;10.444;2023-04-29T08:10:57;17.50;99.90
12025;DHT22;6073;53.230;10.444;2023-04-29T08:13:23;17.90;99.90
12025;DHT22;6073;53.230;10.444;2023-04-29T08:15:49;18.00;99.90
12025;DHT22;6073;53.230;10.444;2023-04-29T08:18:15;17.30;99.90
12025;DHT22;6073;53.230;10.444;2023-04-29T08:20:40;16.90;99.90
12025;DHT22;6073;53.230;10.444;2023-04-29T08:23:06;16.80;99.90
12025;DHT22;6073;53.230;10.444;2023-04-29T08:25:32;17.30;99.90
12025;DHT22;6073;53.230;10.444;2023-04-29T08:27:57;17.00;99.90
12025;DHT22;6073;53.230;10.444;2023-04-29T08:30:23;16.90;99.90
12025;DHT22;6073;53.230;10.444;2023-04-29T08:32:49;16.90;99.90
12025;DHT22;6073;53.230;10.444;2023-04-29T08:35:15;17.00;99.90
12025;DHT22;6073;53.230;10.444;2023-04-29T08:37:40;17.40;99.90
12025;DHT22;6073;53.230;10.444;2023-04-29T08:40:07;17.40;99.90
12025;DHT22;6073;53.230;10.444;2023-04-29T08:42:35;17.50;99.90
12025;DHT22;6073;53.230;10.444;2023-04-29T08:45:02;17.40;99.90
12025;DHT22;6073;53.230;10.444;2023-04-29T08:47:32;17.40;99.90
12025;DHT22;6073;53.230;10.444;2023-04-29T08:50:02;17.70;99.90
12025;DHT22;6073;53.230;10.444;2023-04-29T08:52:30;17.70;99.90
12025;DHT22;6073;53.230;10.444;2023-04-29T08:54:57;17.70;99.90
12025;DHT22;6073;53.230;10.444;2023-04-29T08:57:24;17.80;99.90
12025;DHT22;6073;53.230;10.444;2023-04-29T08:59:50;17.10;99.90
12025;DHT22;6073;53.230;10.444;2023-04-29T09:02:17;17.00;99.90
12025;DHT22;6073;53.230;10.444;2023-04-29T09:04:52;17.30;99.90
12025;DHT22;6073;53.230;10.444;2023-04-29T09:07:20;17.40;99.90
12025;DHT22;6073;53.230;10.444;2023-04-29T09:09:47;17.80;99.90
12025;DHT22;6073;53.230;10.444;2023-04-29T09:12:13;17.40;99.90
12025;DHT22;6073;53.230;10.444;2023-04-29T09:14:39;16.70;99.90
12025;DHT22;6073;53.230;10.444;2023-04-29T09:17:05;16.40;99.90
12025;DHT22;6073;53.230;10.444;2023-04-29T09:19:35;16.30;99.90
12025;DHT22;6073;53.230;10.444;2023-04-29T09:22:02;16.20;99.90
12025;DHT22;6073;53.230;10.444;2023-04-29T09:24:29;16.20;99.90
12025;DHT22;6073;53.230;10.444;2023-04-29T09:26:56;16.30;99.90
12025;DHT22;6073;53.230;10.444;2023-04-29T09:29:23;16.50;99.90
12025;DHT22;6073;53.230;10.444;2023-04-29T09:31:49;16.90;99.90
12025;DHT22;6073;53.230;10.444;2023-04-29T09:34:15;16.40;99.90
12025;DHT22;6073;53.230;10.444;2023-04-29T09:36:48;16.10;99.90
12025;DHT22;6073;53.230;10.444;2023-04-29T09:39:20;16.40;99.90
12025;DHT22;6073;53.230;10.444;2023-04-29T09:44:25;15.70;99.90
12025;DHT22;6073;53.230;10.444;2023-04-29T09:46:59;15.70;99.90
12025;DHT22;6073;53.230;10.444;2023-04-29T09:51:59;15.70;99.90
12025;DHT22;6073;53.230;10.444;2023-04-29T09:54:26;15.90;99.90
12025;DHT22;6073;53.230;10.444;2023-04-29T09:56:57;16.00;99.90
12025;DHT22;6073;53.230;10.444;2023-04-29T09:59:23;15.90;99.90
12025;DHT22;6073;53.230;10.444;2023-04-29T10:01:51;16.00;99.90
12025;DHT22;6073;53.230;10.444;2023-04-29T10:04:18;15.80;99.90
12025;DHT22;6073;53.230;10.444;2023-04-29T10:06:47;16.10;99.90
12025;DHT22;6073;53.230;10.444;2023-04-29T10:09:13;16.40;99.90
12025;DHT22;6073;53.230;10.444;2023-04-29T10:11:44;16.30;99.90
12025;DHT22;6073;53.230;10.444;2023-04-29T10:14:14;16.10;99.90
12025;DHT22;6073;53.230;10.444;2023-04-29T10:17:01;16.20;99.90
12025;DHT22;6073;53.230;10.444;2023-04-29T10:19:46;16.30;99.90
12025;DHT22;6073;53.230;10.444;2023-04-29T10:22:21;16.70;99.90
12025;DHT22;6073;53.230;10.444;2023-04-29T10:24:52;16.70;99.90
12025;DHT22;6073;53.230;10.444;2023-04-29T10:27:19;16.10;99.90
12025;DHT22;6073;53.230;10.444;2023-04-29T10:29:47;15.80;99.90
12025;DHT22;6073;53.230;10.444;2023-04-29T10:32:13;15.80;99.90
12025;DHT22;6073;53.230;10.444;2023-04-29T10:34:40;15.90;99.90
12025;DHT22;6073;53.230;10.444;2023-04-29T10:37:09;16.10;99.90
12025;DHT22;6073;53.230;10.444;2023-04-29T10:39:42;16.10;99.90
12025;DHT22;6073;53.230;10.444;2023-04-29T10:42:20;16.00;99.90
12025;DHT22;6073;53.230;10.444;2023-04-29T10:45:21;16.20;99.90
12025;DHT22;6073;53.230;10.444;2023-04-29T10:50:34;16.70;99.90
12025;DHT22;6073;53.230;10.444;2023-04-29T10:53:04;17.10;99.90
12025;DHT22;6073;53.230;10.444;2023-04-29T10:55:30;17.60;99.90
12025;DHT22;6073;53.230;10.444;2023-04-29T10:57:56;17.50;99.90
12025;DHT22;6073;53.230;10.444;2023-04-29T11:03:01;17.30;99.90
12025;DHT22;6073;53.230;10.444;2023-04-29T11:05:33;17.10;99.90
12025;DHT22;6073;53.230;10.444;2023-04-29T11:08:11;16.90;99.90
12025;DHT22;6073;53.230;10.444;2023-04-29T11:10:41;16.30;99.90
12025;DHT22;6073;53.230;10.444;2023-04-29T11:13:26;16.40;99.90
12025;DHT22;6073;53.230;10.444;2023-04-29T11:16:05;16.40;99.90
12025;DHT22;6073;53.230;10.444;2023-04-29T11:18:31;16.20;99.90
12025;DHT22;6073;53.230;10.444;2023-04-29T11:23:28;15.80;99.90
12025;DHT22;6073;53.230;10.444;2023-04-29T11:25:54;15.60;99.90
12025;DHT22;6073;53.230;10.444;2023-04-29T11:28:21;15.90;99.90
12025;DHT22;6073;53.230;10.444;2023-04-29T11:30:49;16.20;99.90
12025;DHT22;6073;53.230;10.444;2023-04-29T11:33:15;16.60;99.90
12025;DHT22;6073;53.230;10.444;2023-04-29T11:35:41;16.10;99.90
12025;DHT22;6073;53.230;10.444;2023-04-29T11:38:08;16.20;99.90
12025;DHT22;6073;53.230;10.444;2023-04-29T11:40:34;16.30;99.90
12025;DHT22;6073;53.230;10.444;2023-04-29T11:42:59;16.70;99.90
12025;DHT22;6073;53.230;10.444;2023-04-29T11:45:25;17.10;99.90
12025;DHT22;6073;53.230;10.444;2023-04-29T11:47:51;16.90;99.90
12025;DHT22;6073;53.230;10.444;2023-04-29T11:50:17;16.80;99.90
12025;DHT22;6073;53.230;10.444;2023-04-29T11:52:45;16.70;99.90
12025;DHT22;6073;53.230;10.444;2023-04-29T11:55:12;16.40;99.90
12025;DHT22;6073;53.230;10.444;2023-04-29T11:57:39;16.40;99.90
12025;DHT22;6073;53.230;10.444;2023-04-29T12:00:08;16.50;99.90
12025;DHT22;6073;53.230;10.444;2023-04-29T12:02:34;16.50;99.90
12025;DHT22;6073;53.230;10.444;2023-04-29T12:05:05;16.40;99.90
12025;DHT22;6073;53.230;10.444;2023-04-29T12:07:30;16.00;99.90
12025;DHT22;6073;53.230;10.444;2023-04-29T12:09:56;15.80;99.90
12025;DHT22;6073;53.230;10.444;2023-04-29T12:12:23;16.10;99.90
12025;DHT22;6073;53.230;10.444;2023-04-29T12:14:49;16.40;99.90
12025;DHT22;6073;53.230;10.444;2023-04-29T12:17:15;16.60;99.90
12025;DHT22;6073;53.230;10.444;2023-04-29T12:19:42;16.40;99.90
12025;DHT22;6073;53.230;10.444;2023-04-29T12:22:09;16.30;99.90
12025;DHT22;6073;53.230;10.444;2023-04-29T12:24:38;15.70;99.90
12025;DHT22;6073;53.230;10.444;2023-04-29T12:27:07;15.80;99.90
12025;DHT22;6073;53.230;10.444;2023-04-29T12:29:35;16.00;99.90
12025;DHT22;6073;53.230;10.444;2023-04-29T12:32:01;15.80;99.90
12025;DHT22;6073;53.230;10.444;2023-04-29T12:34:28;16.00;99.90
12025;DHT22;6073;53.230;10.444;2023-04-29T12:36:55;15.90;99.90
12025;DHT22;6073;53.230;10.444;2023-04-29T12:39:22;15.90;99.90
12025;DHT22;6073;53.230;10.444;2023-04-29T12:41:47;15.90;99.90
12025;DHT22;6073;53.230;10.444;2023-04-29T12:44:13;16.20;99.90
12025;DHT22;6073;53.230;10.444;2023-04-29T12:46:40;16.50;99.90
12025;DHT22;6073;53.230;10.444;2023-04-29T12:49:06;17.10;99.90
12025;DHT22;6073;53.230;10.444;2023-04-29T12:51:32;17.30;99.90
12025;DHT22;6073;53.230;10.444;2023-04-29T12:54:00;17.40;99.90
12025;DHT22;6073;53.230;10.444;2023-04-29T12:56:26;17.40;99.90
12025;DHT22;6073;53.230;10.444;2023-04-29T12:58:52;17.40;99.90
12025;DHT22;6073;53.230;10.444;2023-04-29T13:01:17;17.30;99.90
12025;DHT22;6073;53.230;10.444;2023-04-29T13:03:43;17.20;99.90
12025;DHT22;6073;53.230;10.444;2023-04-29T13:06:08;17.10;99.90
12025;DHT22;6073;53.230;10.444;2023-04-29T13:08:34;17.00;99.90
12025;DHT22;6073;53.230;10.444;2023-04-29T13:10:59;16.60;99.90
12025;DHT22;6073;53.230;10.444;2023-04-29T13:13:25;16.40;99.90
12025;DHT22;6073;53.230;10.444;2023-04-29T13:15:51;16.20;99.90
12025;DHT22;6073;53.230;10.444;2023-04-29T13:18:17;15.90;99.90
12025;DHT22;6073;53.230;10.444;2023-04-29T13:20:43;15.70;99.90
12025;DHT22;6073;53.230;10.444;2023-04-29T13:23:09;15.70;99.90
12025;DHT22;6073;53.230;10.444;2023-04-29T13:25:34;15.90;99.90
12025;DHT22;6073;53.230;10.444;2023-04-29T13:28:00;15.80;99.90
12025;DHT22;6073;53.230;10.444;2023-04-29T13:30:26;15.50;99.90
12025;DHT22;6073;53.230;10.444;2023-04-29T13:32:51;15.50;99.90
12025;DHT22;6073;53.230;10.444;2023-04-29T13:35:17;15.50;99.90
12025;DHT22;6073;53.230;10.444;2023-04-29T13:37:42;15.30;99.90
12025;DHT22;6073;53.230;10.444;2023-04-29T13:40:08;15.10;99.90
12025;DHT22;6073;53.230;10.444;2023-04-29T13:42:34;15.30;99.90
12025;DHT22;6073;53.230;10.444;2023-04-29T13:45:01;15.70;99.90
12025;DHT22;6073;53.230;10.444;2023-04-29T13:47:28;16.10;99.90
12025;DHT22;6073;53.230;10.444;2023-04-29T13:49:53;16.50;99.90
12025;DHT22;6073;53.230;10.444;2023-04-29T13:52:19;16.80;99.90
12025;DHT22;6073;53.230;10.444;2023-04-29T13:54:44;16.80;99.90
12025;DHT22;6073;53.230;10.444;2023-04-29T13:57:10;16.70;99.90
12025;DHT22;6073;53.230;10.444;2023-04-29T13:59:35;17.00;99.90
12025;DHT22;6073;53.230;10.444;2023-04-29T14:02:01;17.10;99.90
12025;DHT22;6073;53.230;10.444;2023-04-29T14:04:28;16.90;99.90
12025;DHT22;6073;53.230;10.444;2023-04-29T14:06:54;16.80;99.90
12025;DHT22;6073;53.230;10.444;2023-04-29T14:09:20;16.50;99.90
12025;DHT22;6073;53.230;10.444;2023-04-29T14:11:47;16.00;99.90
12025;DHT22;6073;53.230;10.444;2023-04-29T14:14:14;16.10;99.90
12025;DHT22;6073;53.230;10.444;2023-04-29T14:16:39;16.00;99.90
12025;DHT22;6073;53.230;10.444;2023-04-29T14:19:05;16.10;99.90
12025;DHT22;6073;53.230;10.444;2023-04-29T14:21:31;16.20;99.90
12025;DHT22;6073;53.230;10.444;2023-04-29T14:23:58;16.20;99.90
12025;DHT22;6073;53.230;10.444;2023-04-29T14:26:24;16.20;99.90
12025;DHT22;6073;53.230;10.444;2023-04-29T14:28:51;16.00;99.90
12025;DHT22;6073;53.230;10.444;2023-04-29T14:31:25;16.10;99.90
12025;DHT22;6073;53.230;10.444;2023-04-29T14:33:52;16.10;99.90
12025;DHT22;6073;53.230;10.444;2023-04-29T14:36:18;16.00;99.90
12025;DHT22;6073;53.230;10.444;2023-04-29T14:38:44;16.10;99.90
12025;DHT22;6073;53.230;10.444;2023-04-29T14:41:09;16.00;99.90
12025;DHT22;6073;53.230;10.444;2023-04-29T14:43:35;16.00;99.90
12025;DHT22;6073;53.230;10.444;2023-04-29T14:46:01;16.00;99.90
12025;DHT22;6073;53.230;10.444;2023-04-29T14:48:27;15.90;99.90
12025;DHT22;6073;53.230;10.444;2023-04-29T14:50:53;15.70;99.90
12025;DHT22;6073;53.230;10.444;2023-04-29T14:53:19;15.70;99.90
12025;DHT22;6073;53.230;10.444;2023-04-29T14:55:47;15.90;99.90
12025;DHT22;6073;53.230;10.444;2023-04-29T14:58:13;15.80;99.90
12025;DHT22;6073;53.230;10.444;2023-04-29T15:00:38;15.60;99.90
12025;DHT22;6073;53.230;10.444;2023-04-29T15:03:04;15.60;99.90
12025;DHT22;6073;53.230;10.444;2023-04-29T15:05:30;15.80;99.90
12025;DHT22;6073;53.230;10.444;2023-04-29T15:07:55;15.70;99.90
12025;DHT22;6073;53.230;10.444;2023-04-29T15:10:22;15.40;99.90
12025;DHT22;6073;53.230;10.444;2023-04-29T15:12:48;15.40;99.90
12025;DHT22;6073;53.230;10.444;2023-04-29T15:15:15;15.50;99.90
12025;DHT22;6073;53.230;10.444;2023-04-29T15:17:41;15.60;99.90
12025;DHT22;6073;53.230;10.444;2023-04-29T15:20:07;15.70;99.90
12025;DHT22;6073;53.230;10.444;2023-04-29T15:22:32;16.00;99.90
12025;DHT22;6073;53.230;10.444;2023-04-29T15:24:58;15.90;99.90
12025;DHT22;6073;53.230;10.444;2023-04-29T15:27:23;16.00;99.90
12025;DHT22;6073;53.230;10.444;2023-04-29T15:29:49;15.60;99.90
12025;DHT22;6073;53.230;10.444;2023-04-29T15:32:18;15.70;99.90
12025;DHT22;6073;53.230;10.444;2023-04-29T15:34:43;15.80;99.90
12025;DHT22;6073;53.230;10.444;2023-04-29T15:37:10;15.70;99.90
12025;DHT22;6073;53.230;10.444;2023-04-29T15:39:35;15.60;99.90
12025;DHT22;6073;53.230;10.444;2023-04-29T15:42:00;15.50;99.90
12025;DHT22;6073;53.230;10.444;2023-04-29T15:44:26;15.40;99.90
12025;DHT22;6073;53.230;10.444;2023-04-29T15:46:52;15.30;99.90
12025;DHT22;6073;53.230;10.444;2023-04-29T15:49:17;15.40;99.90
12025;DHT22;6073;53.230;10.444;2023-04-29T15:51:43;15.20;99.90
12025;DHT22;6073;53.230;10.444;2023-04-29T15:54:08;15.20;99.90
12025;DHT22;6073;53.230;10.444;2023-04-29T15:56:34;15.30;99.90
12025;DHT22;6073;53.230;10.444;2023-04-29T15:59:00;15.20;99.90
12025;DHT22;6073;53.230;10.444;2023-04-29T16:01:26;15.30;99.90